sensor_id;sensor_type;location;lat;lon;timestamp;pressure;altitude;pressure_sealevel;temperature;humidity
13476;BME280;6810;63.824;20.288;2024-02-23T00:01:56;99662.38;;;2.74;86.72
13476;BME280;6810;63.824;20.288;2024-02-23T00:04:43;99658.00;;;2.74;87.08
13476;BME280;6810;63.824;20.288;2024-02-23T00:07:30;99658.91;;;2.73;86.78
13476;BME280;6810;63.824;20.288;2024-02-23T00:10:17;99654.50;;;2.74;86.29
13476;BME280;6810;63.824;20.288;2024-02-23T00:13:04;99657.06;;;2.75;86.95
13476;BME280;6810;63.824;20.288;2024-02-23T00:15:50;99658.84;;;2.75;87.32
13476;BME280;6810;63.824;20.288;2024-02-23T00:18:38;99650.09;;;2.74;87.30
13476;BME280;6810;63.824;20.288;2024-02-23T00:21:25;99666.75;;;2.75;86.19
13476;BME280;6810;63.824;20.288;2024-02-23T00:24:11;99658.84;;;2.75;86.79
13476;BME280;6810;63.824;20.288;2024-02-23T00:26:59;99666.75;;;2.75;86.57
13476;BME280;6810;63.824;20.288;2024-02-23T00:29:45;99657.25;;;2.71;86.55
13476;BME280;6810;63.824;20.288;2024-02-23T00:32:32;99646.59;;;2.74;87.14
13476;BME280;6810;63.824;20.288;2024-02-23T00:35:19;99654.44;;;2.75;87.37
13476;BME280;6810;63.824;20.288;2024-02-23T00:38:06;99650.97;;;2.75;86.39
13476;BME280;6810;63.824;20.288;2024-02-23T00:40:53;99658.78;;;2.76;86.41
13476;BME280;6810;63.824;20.288;2024-02-23T00:43:40;99643.91;;;2.75;86.37
13476;BME280;6810;63.824;20.288;2024-02-23T00:46:27;99647.41;;;2.76;86.35
13476;BME280;6810;63.824;20.288;2024-02-23T00:49:14;99635.44;;;2.69;86.95
13476;BME280;6810;63.824;20.288;2024-02-23T00:52:01;99650.91;;;2.76;86.70
13476;BME280;6810;63.824;20.288;2024-02-23T00:54:48;99605.19;;;2.59;87.29
13476;BME280;6810;63.824;20.288;2024-02-23T00:57:35;99632.47;;;2.76;87.25
13476;BME280;6810;63.824;20.288;2024-02-23T01:00:22;99638.56;;;2.77;86.30
13476;BME280;6810;63.824;20.288;2024-02-23T01:02:50;99637.75;;;2.76;87.41
13476;BME280;6810;63.824;20.288;2024-02-23T01:05:17;99639.44;;;2.77;87.10
13476;BME280;6810;63.824;20.288;2024-02-23T01:07:44;99637.69;;;2.78;86.37
13476;BME280;6810;63.824;20.288;2024-02-23T01:10:11;99646.41;;;2.78;86.32
13476;BME280;6810;63.824;20.288;2024-02-23T01:12:38;99620.38;;;2.72;87.15
13476;BME280;6810;63.824;20.288;2024-02-23T01:15:25;99634.09;;;2.79;86.41
13476;BME280;6810;63.824;20.288;2024-02-23T01:18:15;99614.75;;;2.80;86.80
13476;BME280;6810;63.824;20.288;2024-02-23T01:21:03;99610.50;;;2.77;86.63
13476;BME280;6810;63.824;20.288;2024-02-23T01:23:50;99614.75;;;2.80;87.42
13476;BME280;6810;63.824;20.288;2024-02-23T01:26:36;99603.47;;;2.78;86.81
13476;BME280;6810;63.824;20.288;2024-02-23T01:29:25;99600.84;;;2.78;86.95
13476;BME280;6810;63.824;20.288;2024-02-23T01:32:12;99605.97;;;2.81;87.06
13476;BME280;6810;63.824;20.288;2024-02-23T01:34:59;99609.50;;;2.80;86.23
13476;BME280;6810;63.824;20.288;2024-02-23T01:37:46;99596.63;;;2.74;87.26
13476;BME280;6810;63.824;20.288;2024-02-23T01:40:33;99592.09;;;2.77;86.83
13476;BME280;6810;63.824;20.288;2024-02-23T01:43:20;99591.88;;;2.82;87.38
13476;BME280;6810;63.824;20.288;2024-02-23T01:46:07;99592.88;;;2.79;86.31
13476;BME280;6810;63.824;20.288;2024-02-23T01:48:54;99595.38;;;2.82;86.70
13476;BME280;6810;63.824;20.288;2024-02-23T01:51:41;99598.84;;;2.83;87.02
13476;BME280;6810;63.824;20.288;2024-02-23T01:54:29;99599.72;;;2.83;87.08
13476;BME280;6810;63.824;20.288;2024-02-23T01:57:16;99590.03;;;2.84;86.14
13476;BME280;6810;63.824;20.288;2024-02-23T02:00:17;99583.06;;;2.83;86.33
13476;BME280;6810;63.824;20.288;2024-02-23T02:02:53;99583.06;;;2.83;86.99
13476;BME280;6810;63.824;20.288;2024-02-23T02:05:21;99593.50;;;2.84;87.22
13476;BME280;6810;63.824;20.288;2024-02-23T02:08:10;99572.94;;;2.74;86.47
13476;BME280;6810;63.824;20.288;2024-02-23T02:10:57;99583.91;;;2.83;86.80
13476;BME280;6810;63.824;20.288;2024-02-23T02:13:45;99580.34;;;2.84;86.82
13476;BME280;6810;63.824;20.288;2024-02-23T02:16:31;99579.44;;;2.85;86.77
13476;BME280;6810;63.824;20.288;2024-02-23T02:19:18;99589.91;;;2.87;87.28
13476;BME280;6810;63.824;20.288;2024-02-23T02:22:05;99582.91;;;2.86;86.42
13476;BME280;6810;63.824;20.288;2024-02-23T02:24:52;99575.03;;;2.86;87.15
13476;BME280;6810;63.824;20.288;2024-02-23T02:27:39;99564.56;;;2.84;86.42
13476;BME280;6810;63.824;20.288;2024-02-23T02:30:26;99563.88;;;2.81;86.26
13476;BME280;6810;63.824;20.288;2024-02-23T02:33:13;99549.13;;;2.77;86.83
13476;BME280;6810;63.824;20.288;2024-02-23T02:36:00;99579.38;;;2.87;86.45
13476;BME280;6810;63.824;20.288;2024-02-23T02:38:47;99566.28;;;2.85;86.92
13476;BME280;6810;63.824;20.288;2024-02-23T02:41:37;99544.09;;;2.72;86.65
13476;BME280;6810;63.824;20.288;2024-02-23T02:44:24;99566.28;;;2.85;85.81
13476;BME280;6810;63.824;20.288;2024-02-23T02:47:11;99559.25;;;2.86;86.16
13476;BME280;6810;63.824;20.288;2024-02-23T02:49:58;99560.16;;;2.85;87.19
13476;BME280;6810;63.824;20.288;2024-02-23T02:52:45;99558.41;;;2.85;86.49
13476;BME280;6810;63.824;20.288;2024-02-23T02:55:32;99555.78;;;2.85;85.92
13476;BME280;6810;63.824;20.288;2024-02-23T02:58:19;99561.03;;;2.85;87.17
13476;BME280;6810;63.824;20.288;2024-02-23T03:01:06;99552.28;;;2.85;86.28
13476;BME280;6810;63.824;20.288;2024-02-23T03:03:53;99548.16;;;2.79;86.77
13476;BME280;6810;63.824;20.288;2024-02-23T03:06:40;99545.25;;;2.85;86.39
13476;BME280;6810;63.824;20.288;2024-02-23T03:09:27;99545.25;;;2.85;86.79
13476;BME280;6810;63.824;20.288;2024-02-23T03:12:14;99539.13;;;2.85;86.05
13476;BME280;6810;63.824;20.288;2024-02-23T03:15:01;99547.09;;;2.83;86.40
13476;BME280;6810;63.824;20.288;2024-02-23T03:17:48;99547.03;;;2.85;86.15
13476;BME280;6810;63.824;20.288;2024-02-23T03:20:35;99550.50;;;2.85;86.75
13476;BME280;6810;63.824;20.288;2024-02-23T03:23:22;99541.75;;;2.85;86.78
13476;BME280;6810;63.824;20.288;2024-02-23T03:26:09;99546.09;;;2.86;86.92
13476;BME280;6810;63.824;20.288;2024-02-23T03:28:56;99546.94;;;2.86;86.38
13476;BME280;6810;63.824;20.288;2024-02-23T03:31:43;99545.19;;;2.87;86.39
13476;BME280;6810;63.824;20.288;2024-02-23T03:34:29;99544.31;;;2.86;85.72
13476;BME280;6810;63.824;20.288;2024-02-23T03:37:16;99546.88;;;2.88;86.25
13476;BME280;6810;63.824;20.288;2024-02-23T03:40:05;99539.06;;;2.86;85.97
13476;BME280;6810;63.824;20.288;2024-02-23T03:42:52;99539.91;;;2.87;86.63
13476;BME280;6810;63.824;20.288;2024-02-23T03:45:39;99533.88;;;2.85;85.71
13476;BME280;6810;63.824;20.288;2024-02-23T03:48:25;99543.38;;;2.87;87.05
13476;BME280;6810;63.824;20.288;2024-02-23T03:51:13;99532.03;;;2.87;86.94
13476;BME280;6810;63.824;20.288;2024-02-23T03:54:00;99517.13;;;2.86;85.91
13476;BME280;6810;63.824;20.288;2024-02-23T03:56:47;99517.94;;;2.88;86.77
13476;BME280;6810;63.824;20.288;2024-02-23T03:59:36;99517.06;;;2.87;86.13
13476;BME280;6810;63.824;20.288;2024-02-23T04:02:23;99515.31;;;2.88;85.91
13476;BME280;6810;63.824;20.288;2024-02-23T04:05:09;99510.91;;;2.88;86.38
13476;BME280;6810;63.824;20.288;2024-02-23T04:07:56;99506.53;;;2.87;86.90
13476;BME280;6810;63.824;20.288;2024-02-23T04:10:43;99509.19;;;2.87;86.47
13476;BME280;6810;63.824;20.288;2024-02-23T04:13:30;99511.78;;;2.89;86.50
13476;BME280;6810;63.824;20.288;2024-02-23T04:16:22;99509.19;;;2.87;86.00
13476;BME280;6810;63.824;20.288;2024-02-23T04:19:09;99502.38;;;2.83;85.68
13476;BME280;6810;63.824;20.288;2024-02-23T04:21:56;99501.28;;;2.87;85.64
13476;BME280;6810;63.824;20.288;2024-02-23T04:24:43;99506.53;;;2.87;86.43
13476;BME280;6810;63.824;20.288;2024-02-23T04:27:30;99506.53;;;2.87;85.56
13476;BME280;6810;63.824;20.288;2024-02-23T04:30:17;99503.91;;;2.87;86.91
13476;BME280;6810;63.824;20.288;2024-02-23T04:33:04;99505.72;;;2.87;86.51
13476;BME280;6810;63.824;20.288;2024-02-23T04:35:51;99501.28;;;2.87;86.83
13476;BME280;6810;63.824;20.288;2024-02-23T04:38:38;99504.78;;;2.88;85.73
13476;BME280;6810;63.824;20.288;2024-02-23T04:41:24;99498.03;;;2.82;85.85
13476;BME280;6810;63.824;20.288;2024-02-23T04:44:11;99502.22;;;2.86;86.88
13476;BME280;6810;63.824;20.288;2024-02-23T04:46:58;99488.19;;;2.86;85.59
13476;BME280;6810;63.824;20.288;2024-02-23T04:49:45;99492.56;;;2.87;85.79
13476;BME280;6810;63.824;20.288;2024-02-23T04:52:33;99489.13;;;2.85;86.95
13476;BME280;6810;63.824;20.288;2024-02-23T04:55:19;99490.06;;;2.84;86.39
13476;BME280;6810;63.824;20.288;2024-02-23T04:58:06;99469.31;;;2.78;85.33
13476;BME280;6810;63.824;20.288;2024-02-23T05:00:53;99485.56;;;2.86;85.74
13476;BME280;6810;63.824;20.288;2024-02-23T05:03:40;99485.66;;;2.84;86.51
13476;BME280;6810;63.824;20.288;2024-02-23T05:06:33;99474.56;;;2.78;86.18
13476;BME280;6810;63.824;20.288;2024-02-23T05:09:20;99482.25;;;2.82;86.21
13476;BME280;6810;63.824;20.288;2024-02-23T05:12:08;99482.19;;;2.84;86.43
13476;BME280;6810;63.824;20.288;2024-02-23T05:14:55;99477.81;;;2.83;86.56
13476;BME280;6810;63.824;20.288;2024-02-23T05:17:42;99458.94;;;2.75;86.68
13476;BME280;6810;63.824;20.288;2024-02-23T05:20:29;99458.22;;;2.71;85.41
13476;BME280;6810;63.824;20.288;2024-02-23T05:23:19;99470.06;;;2.80;86.61
13476;BME280;6810;63.824;20.288;2024-02-23T05:26:07;99470.00;;;2.81;86.77
13476;BME280;6810;63.824;20.288;2024-02-23T05:28:54;99475.25;;;2.81;86.15
13476;BME280;6810;63.824;20.288;2024-02-23T05:31:48;99464.75;;;2.81;86.85
13476;BME280;6810;63.824;20.288;2024-02-23T05:34:35;99477.00;;;2.82;86.68
13476;BME280;6810;63.824;20.288;2024-02-23T05:37:22;99477.00;;;2.82;85.92
13476;BME280;6810;63.824;20.288;2024-02-23T05:40:09;99469.09;;;2.82;86.89
13476;BME280;6810;63.824;20.288;2024-02-23T05:42:56;99475.19;;;2.83;86.43
13476;BME280;6810;63.824;20.288;2024-02-23T05:45:43;99464.00;;;2.79;86.01
13476;BME280;6810;63.824;20.288;2024-02-23T05:48:30;99469.94;;;2.83;85.77
13476;BME280;6810;63.824;20.288;2024-02-23T05:51:17;99467.38;;;2.81;85.85
13476;BME280;6810;63.824;20.288;2024-02-23T05:54:04;99439.25;;;2.65;85.75
13476;BME280;6810;63.824;20.288;2024-02-23T05:56:51;99464.75;;;2.81;86.29
13476;BME280;6810;63.824;20.288;2024-02-23T05:59:38;99469.19;;;2.81;85.84
13476;BME280;6810;63.824;20.288;2024-02-23T06:02:25;99459.47;;;2.81;86.05
13476;BME280;6810;63.824;20.288;2024-02-23T06:05:12;99456.84;;;2.81;86.70
13476;BME280;6810;63.824;20.288;2024-02-23T06:07:59;99453.47;;;2.79;86.07
13476;BME280;6810;63.824;20.288;2024-02-23T06:10:46;99459.47;;;2.81;86.20
13476;BME280;6810;63.824;20.288;2024-02-23T06:13:33;99451.66;;;2.80;85.48
13476;BME280;6810;63.824;20.288;2024-02-23T06:16:20;99450.84;;;2.79;85.91
13476;BME280;6810;63.824;20.288;2024-02-23T06:19:08;99446.41;;;2.80;86.65
13476;BME280;6810;63.824;20.288;2024-02-23T06:21:55;99463.91;;;2.81;86.84
13476;BME280;6810;63.824;20.288;2024-02-23T06:24:42;99453.38;;;2.81;85.80
13476;BME280;6810;63.824;20.288;2024-02-23T06:27:29;99453.38;;;2.81;86.81
13476;BME280;6810;63.824;20.288;2024-02-23T06:30:16;99448.13;;;2.81;85.43
13476;BME280;6810;63.824;20.288;2024-02-23T06:33:03;99446.25;;;2.83;86.68
13476;BME280;6810;63.824;20.288;2024-02-23T06:35:50;99438.44;;;2.81;85.89
13476;BME280;6810;63.824;20.288;2024-02-23T06:38:37;99437.53;;;2.82;85.92
13476;BME280;6810;63.824;20.288;2024-02-23T06:41:24;99439.31;;;2.82;86.12
13476;BME280;6810;63.824;20.288;2024-02-23T06:44:11;99431.56;;;2.79;86.63
13476;BME280;6810;63.824;20.288;2024-02-23T06:46:58;99427.91;;;2.81;86.36
13476;BME280;6810;63.824;20.288;2024-02-23T06:49:46;99417.22;;;2.67;86.11
13476;BME280;6810;63.824;20.288;2024-02-23T06:52:33;99441.84;;;2.83;86.54
13476;BME280;6810;63.824;20.288;2024-02-23T06:55:20;99440.09;;;2.84;86.74
13476;BME280;6810;63.824;20.288;2024-02-23T06:58:07;99438.28;;;2.84;85.65
13476;BME280;6810;63.824;20.288;2024-02-23T07:00:54;99439.22;;;2.83;86.84
13476;BME280;6810;63.824;20.288;2024-02-23T07:03:29;99436.53;;;2.85;86.93
13476;BME280;6810;63.824;20.288;2024-02-23T07:05:57;99440.09;;;2.84;86.53
13476;BME280;6810;63.824;20.288;2024-02-23T07:08:24;99447.84;;;2.87;86.36
13476;BME280;6810;63.824;20.288;2024-02-23T07:11:12;99446.03;;;2.87;85.57
13476;BME280;6810;63.824;20.288;2024-02-23T07:13:59;99439.00;;;2.88;86.26
13476;BME280;6810;63.824;20.288;2024-02-23T07:16:46;99435.47;;;2.89;86.46
13476;BME280;6810;63.824;20.288;2024-02-23T07:19:33;99431.03;;;2.89;86.94
13476;BME280;6810;63.824;20.288;2024-02-23T07:22:20;99431.91;;;2.90;85.49
13476;BME280;6810;63.824;20.288;2024-02-23T07:25:07;99431.81;;;2.91;86.54
13476;BME280;6810;63.824;20.288;2024-02-23T07:27:54;99427.44;;;2.92;86.05
13476;BME280;6810;63.824;20.288;2024-02-23T07:30:41;99418.66;;;2.91;86.57
13476;BME280;6810;63.824;20.288;2024-02-23T07:33:27;99410.94;;;2.88;86.80
13476;BME280;6810;63.824;20.288;2024-02-23T07:36:15;99412.63;;;2.89;86.74
13476;BME280;6810;63.824;20.288;2024-02-23T07:39:02;99414.97;;;2.95;86.81
13476;BME280;6810;63.824;20.288;2024-02-23T07:41:49;99415.75;;;2.97;86.19
13476;BME280;6810;63.824;20.288;2024-02-23T07:44:36;99387.41;;;2.85;86.07
13476;BME280;6810;63.824;20.288;2024-02-23T07:47:23;99419.16;;;2.99;86.33
13476;BME280;6810;63.824;20.288;2024-02-23T07:50:10;99418.22;;;3.00;86.50
13476;BME280;6810;63.824;20.288;2024-02-23T07:52:57;99421.66;;;3.02;85.60
13476;BME280;6810;63.824;20.288;2024-02-23T07:55:44;99416.31;;;3.04;86.76
13476;BME280;6810;63.824;20.288;2024-02-23T07:58:31;99414.59;;;3.03;86.20
13476;BME280;6810;63.824;20.288;2024-02-23T08:01:18;99393.69;;;3.00;86.33
13476;BME280;6810;63.824;20.288;2024-02-23T08:04:05;99401.28;;;3.06;86.26
13476;BME280;6810;63.824;20.288;2024-02-23T08:06:52;99397.66;;;3.08;86.91
13476;BME280;6810;63.824;20.288;2024-02-23T08:09:38;99401.91;;;3.11;86.47
13476;BME280;6810;63.824;20.288;2024-02-23T08:12:06;99395.78;;;3.10;86.81
13476;BME280;6810;63.824;20.288;2024-02-23T08:14:33;99403.59;;;3.12;86.31
13476;BME280;6810;63.824;20.288;2024-02-23T08:17:20;99398.25;;;3.13;85.99
13476;BME280;6810;63.824;20.288;2024-02-23T08:20:08;99377.59;;;3.06;86.90
13476;BME280;6810;63.824;20.288;2024-02-23T08:22:55;99397.44;;;3.13;86.20
13476;BME280;6810;63.824;20.288;2024-02-23T08:25:41;99394.78;;;3.13;85.96
13476;BME280;6810;63.824;20.288;2024-02-23T08:28:28;99397.94;;;3.19;86.30
13476;BME280;6810;63.824;20.288;2024-02-23T08:31:15;99390.91;;;3.20;85.93
13476;BME280;6810;63.824;20.288;2024-02-23T08:34:07;99397.84;;;3.22;85.67
13476;BME280;6810;63.824;20.288;2024-02-23T08:36:54;99382.03;;;3.22;86.68
13476;BME280;6810;63.824;20.288;2024-02-23T11:06:10;99201.84;;;3.28;86.12
13476;BME280;6810;63.824;20.288;2024-02-23T11:09:05;99194.81;;;3.28;86.27
13476;BME280;6810;63.824;20.288;2024-02-23T11:12:04;99190.38;;;3.29;86.43
13476;BME280;6810;63.824;20.288;2024-02-23T11:14:51;99183.50;;;3.26;86.27
13476;BME280;6810;63.824;20.288;2024-02-23T11:17:38;99183.34;;;3.29;85.53
13476;BME280;6810;63.824;20.288;2024-02-23T11:20:34;99164.31;;;3.24;85.49
13476;BME280;6810;63.824;20.288;2024-02-23T11:23:21;99171.97;;;3.29;86.23
13476;BME280;6810;63.824;20.288;2024-02-23T11:26:12;99170.03;;;3.32;86.31
13476;BME280;6810;63.824;20.288;2024-02-23T11:29:08;99138.41;;;3.17;85.67
13476;BME280;6810;63.824;20.288;2024-02-23T11:31:56;99158.53;;;3.33;85.66
13476;BME280;6810;63.824;20.288;2024-02-23T11:34:56;99143.69;;;3.32;85.17
13476;BME280;6810;63.824;20.288;2024-02-23T11:37:54;99139.28;;;3.33;85.21
13476;BME280;6810;63.824;20.288;2024-02-23T11:40:44;99131.38;;;3.33;86.50
13476;BME280;6810;63.824;20.288;2024-02-23T11:43:34;99120.09;;;3.31;85.81
13476;BME280;6810;63.824;20.288;2024-02-23T11:46:34;99116.41;;;3.33;85.96
13476;BME280;6810;63.824;20.288;2024-02-23T11:49:27;99124.31;;;3.33;85.23
13476;BME280;6810;63.824;20.288;2024-02-23T11:52:14;99120.78;;;3.34;85.21
13476;BME280;6810;63.824;20.288;2024-02-23T11:55:01;99112.03;;;3.34;85.57
13476;BME280;6810;63.824;20.288;2024-02-23T11:57:48;99104.47;;;3.28;85.52
13476;BME280;6810;63.824;20.288;2024-02-23T12:00:44;99103.25;;;3.33;86.34
13476;BME280;6810;63.824;20.288;2024-02-23T12:03:31;99091.13;;;3.31;85.98
13476;BME280;6810;63.824;20.288;2024-02-23T12:06:18;99099.72;;;3.34;86.28
13476;BME280;6810;63.824;20.288;2024-02-23T12:09:05;99089.28;;;3.33;85.59
13476;BME280;6810;63.824;20.288;2024-02-23T12:11:52;99080.44;;;3.34;86.07
13476;BME280;6810;63.824;20.288;2024-02-23T12:14:40;99075.16;;;3.34;85.27
13476;BME280;6810;63.824;20.288;2024-02-23T12:17:27;99074.31;;;3.33;85.93
13476;BME280;6810;63.824;20.288;2024-02-23T12:20:14;99067.25;;;3.34;85.71
13476;BME280;6810;63.824;20.288;2024-02-23T12:23:01;99069.13;;;3.32;86.11
13476;BME280;6810;63.824;20.288;2024-02-23T12:25:57;99073.47;;;3.33;85.26
13476;BME280;6810;63.824;20.288;2024-02-23T12:28:44;99060.41;;;3.31;86.03
13476;BME280;6810;63.824;20.288;2024-02-23T12:31:32;99050.94;;;3.27;85.59
13476;BME280;6810;63.824;20.288;2024-02-23T12:34:19;99054.97;;;3.34;85.28
13476;BME280;6810;63.824;20.288;2024-02-23T12:37:07;99057.59;;;3.34;85.96
13476;BME280;6810;63.824;20.288;2024-02-23T12:39:54;99057.59;;;3.34;85.25
13476;BME280;6810;63.824;20.288;2024-02-23T12:42:41;99058.50;;;3.33;85.77
13476;BME280;6810;63.824;20.288;2024-02-23T12:45:28;99046.13;;;3.35;85.97
13476;BME280;6810;63.824;20.288;2024-02-23T12:48:15;99039.16;;;3.34;85.88
13476;BME280;6810;63.824;20.288;2024-02-23T12:51:03;99052.25;;;3.36;85.39
13476;BME280;6810;63.824;20.288;2024-02-23T12:53:50;99054.97;;;3.34;86.39
13476;BME280;6810;63.824;20.288;2024-02-23T12:56:37;99051.38;;;3.35;85.25
13476;BME280;6810;63.824;20.288;2024-02-23T12:59:24;99044.44;;;3.34;85.19
13476;BME280;6810;63.824;20.288;2024-02-23T13:02:11;99020.41;;;3.25;86.10
13476;BME280;6810;63.824;20.288;2024-02-23T13:04:58;99039.06;;;3.36;85.28
13476;BME280;6810;63.824;20.288;2024-02-23T13:07:47;99029.38;;;3.36;86.81
13476;BME280;6810;63.824;20.288;2024-02-23T13:10:34;99019.78;;;3.35;85.39
13476;BME280;6810;63.824;20.288;2024-02-23T13:13:21;99007.47;;;3.36;85.31
13476;BME280;6810;63.824;20.288;2024-02-23T13:16:10;98998.72;;;3.35;85.86
13476;BME280;6810;63.824;20.288;2024-02-23T13:18:57;98997.88;;;3.35;85.88
13476;BME280;6810;63.824;20.288;2024-02-23T13:21:43;98990.06;;;3.33;86.39
13476;BME280;6810;63.824;20.288;2024-02-23T13:24:30;98983.19;;;3.31;85.79
13476;BME280;6810;63.824;20.288;2024-02-23T13:27:17;98973.44;;;3.33;86.63
13476;BME280;6810;63.824;20.288;2024-02-23T13:30:05;98967.31;;;3.32;85.46
13476;BME280;6810;63.824;20.288;2024-02-23T13:32:52;98961.19;;;3.32;86.71
13476;BME280;6810;63.824;20.288;2024-02-23T13:35:39;98957.72;;;3.31;86.34
13476;BME280;6810;63.824;20.288;2024-02-23T13:38:26;98955.09;;;3.31;86.08
13476;BME280;6810;63.824;20.288;2024-02-23T13:41:13;98942.94;;;3.29;86.45
13476;BME280;6810;63.824;20.288;2024-02-23T13:44:00;98940.22;;;3.30;85.23
13476;BME280;6810;63.824;20.288;2024-02-23T13:46:47;98952.56;;;3.30;85.46
13476;BME280;6810;63.824;20.288;2024-02-23T13:49:34;98952.56;;;3.30;85.39
13476;BME280;6810;63.824;20.288;2024-02-23T13:52:21;98944.56;;;3.31;86.53
13476;BME280;6810;63.824;20.288;2024-02-23T13:55:08;98956.88;;;3.31;85.94
13476;BME280;6810;63.824;20.288;2024-02-23T13:57:55;98951.69;;;3.29;85.24
13476;BME280;6810;63.824;20.288;2024-02-23T14:00:42;98944.56;;;3.31;86.53
13476;BME280;6810;63.824;20.288;2024-02-23T14:03:29;98959.41;;;3.32;85.48
13476;BME280;6810;63.824;20.288;2024-02-23T14:06:16;98951.50;;;3.32;85.24
13476;BME280;6810;63.824;20.288;2024-02-23T14:09:03;98948.78;;;3.34;85.37
13476;BME280;6810;63.824;20.288;2024-02-23T14:11:50;98929.41;;;3.35;86.73
13476;BME280;6810;63.824;20.288;2024-02-23T14:14:37;98946.16;;;3.34;85.25
13476;BME280;6810;63.824;20.288;2024-02-23T14:17:24;98935.53;;;3.35;85.38
13476;BME280;6810;63.824;20.288;2024-02-23T14:20:11;98929.50;;;3.33;85.94
13476;BME280;6810;63.824;20.288;2024-02-23T14:22:58;98923.25;;;3.36;86.12
13476;BME280;6810;63.824;20.288;2024-02-23T14:25:45;98932.81;;;3.37;86.84
13476;BME280;6810;63.824;20.288;2024-02-23T14:28:32;98947.75;;;3.36;85.73
13476;BME280;6810;63.824;20.288;2024-02-23T14:31:27;98926.59;;;3.38;85.55
13476;BME280;6810;63.824;20.288;2024-02-23T14:33:54;98924.84;;;3.38;86.79
13476;BME280;6810;63.824;20.288;2024-02-23T14:36:41;98930.09;;;3.38;86.09
13476;BME280;6810;63.824;20.288;2024-02-23T14:39:28;98919.66;;;3.37;85.74
13476;BME280;6810;63.824;20.288;2024-02-23T14:42:15;98918.63;;;3.39;85.49
13476;BME280;6810;63.824;20.288;2024-02-23T14:45:03;98908.00;;;3.41;86.38
13476;BME280;6810;63.824;20.288;2024-02-23T14:47:50;98919.38;;;3.41;86.81
13476;BME280;6810;63.824;20.288;2024-02-23T14:50:37;98911.50;;;3.41;86.88
13476;BME280;6810;63.824;20.288;2024-02-23T14:53:24;98917.63;;;3.42;86.97
13476;BME280;6810;63.824;20.288;2024-02-23T14:56:11;98911.50;;;3.41;85.81
13476;BME280;6810;63.824;20.288;2024-02-23T14:58:58;98916.66;;;3.43;85.67
13476;BME280;6810;63.824;20.288;2024-02-23T15:01:45;98907.91;;;3.42;86.93
13476;BME280;6810;63.824;20.288;2024-02-23T15:04:31;98904.38;;;3.43;86.46
13476;BME280;6810;63.824;20.288;2024-02-23T15:07:18;98908.84;;;3.41;85.46
13476;BME280;6810;63.824;20.288;2024-02-23T15:10:06;98904.38;;;3.43;85.89
13476;BME280;6810;63.824;20.288;2024-02-23T15:12:53;98904.38;;;3.43;86.54
13476;BME280;6810;63.824;20.288;2024-02-23T15:15:40;98906.91;;;3.45;86.39
13476;BME280;6810;63.824;20.288;2024-02-23T15:18:26;98889.28;;;3.45;86.25
13476;BME280;6810;63.824;20.288;2024-02-23T15:21:13;98885.84;;;3.45;85.92
13476;BME280;6810;63.824;20.288;2024-02-23T15:24:00;98878.84;;;3.44;86.15
13476;BME280;6810;63.824;20.288;2024-02-23T15:26:47;98875.31;;;3.45;86.00
13476;BME280;6810;63.824;20.288;2024-02-23T15:29:34;98869.94;;;3.46;86.02
13476;BME280;6810;63.824;20.288;2024-02-23T15:32:01;98880.47;;;3.46;85.66
13476;BME280;6810;63.824;20.288;2024-02-23T15:34:28;98874.28;;;3.47;86.95
13476;BME280;6810;63.824;20.288;2024-02-23T15:37:15;98884.81;;;3.47;87.34
13476;BME280;6810;63.824;20.288;2024-02-23T15:40:02;98882.94;;;3.49;85.75
13476;BME280;6810;63.824;20.288;2024-02-23T15:42:49;98878.50;;;3.50;87.17
13476;BME280;6810;63.824;20.288;2024-02-23T15:45:36;98895.16;;;3.50;86.01
13476;BME280;6810;63.824;20.288;2024-02-23T15:48:23;98872.41;;;3.49;87.25
13476;BME280;6810;63.824;20.288;2024-02-23T15:51:10;98878.50;;;3.50;86.02
13476;BME280;6810;63.824;20.288;2024-02-23T15:54:15;98885.38;;;3.52;86.33
13476;BME280;6810;63.824;20.288;2024-02-23T15:57:02;98896.00;;;3.51;87.34
13476;BME280;6810;63.824;20.288;2024-02-23T15:59:49;98889.78;;;3.52;86.09
13476;BME280;6810;63.824;20.288;2024-02-23T16:02:36;98882.66;;;3.54;86.63
13476;BME280;6810;63.824;20.288;2024-02-23T16:05:23;98883.44;;;3.56;85.99
13476;BME280;6810;63.824;20.288;2024-02-23T16:08:12;98888.78;;;3.54;86.34
13476;BME280;6810;63.824;20.288;2024-02-23T16:10:59;98891.97;;;3.59;87.42
13476;BME280;6810;63.824;20.288;2024-02-23T16:13:46;98913.81;;;3.62;86.67
13476;BME280;6810;63.824;20.288;2024-02-23T16:16:33;98919.84;;;3.64;87.18
13476;BME280;6810;63.824;20.288;2024-02-23T16:19:20;98901.31;;;3.65;86.78
13476;BME280;6810;63.824;20.288;2024-02-23T16:22:07;98900.28;;;3.68;86.25
13476;BME280;6810;63.824;20.288;2024-02-23T16:24:53;98899.31;;;3.69;87.12
13476;BME280;6810;63.824;20.288;2024-02-23T16:27:40;98907.03;;;3.72;86.71
13476;BME280;6810;63.824;20.288;2024-02-23T16:30:27;98898.22;;;3.73;87.13
13476;BME280;6810;63.824;20.288;2024-02-23T16:33:15;98905.19;;;3.74;87.80
13476;BME280;6810;63.824;20.288;2024-02-23T16:36:02;98901.59;;;3.75;86.40
13476;BME280;6810;63.824;20.288;2024-02-23T16:38:49;98901.50;;;3.76;86.76
13476;BME280;6810;63.824;20.288;2024-02-23T16:41:35;98914.66;;;3.76;86.79
13476;BME280;6810;63.824;20.288;2024-02-23T16:44:23;98910.16;;;3.78;86.44
13476;BME280;6810;63.824;20.288;2024-02-23T16:47:10;98918.94;;;3.79;87.06
13476;BME280;6810;63.824;20.288;2024-02-23T16:49:57;98919.75;;;3.79;86.53
13476;BME280;6810;63.824;20.288;2024-02-23T16:52:44;98916.19;;;3.80;87.97
13476;BME280;6810;63.824;20.288;2024-02-23T16:55:31;98902.94;;;3.82;87.00
13476;BME280;6810;63.824;20.288;2024-02-23T16:58:18;98910.06;;;3.80;86.52
13476;BME280;6810;63.824;20.288;2024-02-23T17:01:05;98911.66;;;3.82;88.08
13476;BME280;6810;63.824;20.288;2024-02-23T17:03:52;98918.94;;;3.79;87.33
13476;BME280;6810;63.824;20.288;2024-02-23T17:06:39;98931.16;;;3.80;86.96
13476;BME280;6810;63.824;20.288;2024-02-23T17:09:26;98928.34;;;3.83;87.99
13476;BME280;6810;63.824;20.288;2024-02-23T17:12:14;98925.69;;;3.83;88.04
13476;BME280;6810;63.824;20.288;2024-02-23T17:15:01;98936.25;;;3.83;87.29
13476;BME280;6810;63.824;20.288;2024-02-23T17:17:48;98947.72;;;3.82;87.24
13476;BME280;6810;63.824;20.288;2024-02-23T17:20:35;98935.38;;;3.82;87.36